createdAt,value
2022-09-20T00:01:26.103Z,58.46
2022-09-20T00:03:57.883Z,58.50
2022-09-20T00:06:30.175Z,58.87
2022-09-20T00:08:57.365Z,58.59
2022-09-20T00:11:27.106Z,58.68
2022-09-20T00:13:56.160Z,58.86
2022-09-20T00:16:28.387Z,58.86
2022-09-20T00:18:57.600Z,58.60
2022-09-20T00:21:29.290Z,58.75
2022-09-20T00:23:58.124Z,58.73
2022-09-20T00:26:26.279Z,58.87
2022-09-20T00:28:53.485Z,58.91
2022-09-20T00:31:20.572Z,58.97
2022-09-20T00:34:08.768Z,58.90
2022-09-20T00:36:35.300Z,58.59
2022-09-20T00:39:03.444Z,58.68
2022-09-20T00:41:31.488Z,58.99
2022-09-20T00:44:03.901Z,59.05
2022-09-20T00:46:41.569Z,58.74
2022-09-20T00:49:21.241Z,58.85
2022-09-20T00:51:52.308Z,58.67
2022-09-20T00:54:22.097Z,58.77
2022-09-20T00:56:48.771Z,58.94
2022-09-20T00:59:33.009Z,59.23
2022-09-20T01:02:09.112Z,58.88
2022-09-20T01:04:38.951Z,59.38
2022-09-20T01:07:07.981Z,58.85
2022-09-20T01:09:34.730Z,58.96
2022-09-20T01:12:06.289Z,59.36
2022-09-20T01:14:33.998Z,59.04
2022-09-20T01:17:05.396Z,59.11
2022-09-20T01:19:58.754Z,59.57
2022-09-20T01:23:04.190Z,59.46
2022-09-20T01:25:56.462Z,59.61
2022-09-20T01:28:23.771Z,59.45
2022-09-20T01:31:29.337Z,59.26
2022-09-20T01:34:02.014Z,59.36
2022-09-20T01:36:42.467Z,59.47
2022-09-20T01:39:27.207Z,59.45
2022-09-20T01:41:58.587Z,59.42
2022-09-20T01:44:33.819Z,59.43
2022-09-20T01:47:10.844Z,59.45
2022-09-20T01:50:10.929Z,59.45
2022-09-20T01:53:00.236Z,59.75
2022-09-20T01:55:48.995Z,59.97
2022-09-20T01:59:22.565Z,59.59
2022-09-20T02:02:20.232Z,59.76
2022-09-20T02:05:23.417Z,59.76
2022-09-20T02:07:55.791Z,59.81
2022-09-20T02:10:32.413Z,59.71
2022-09-20T02:13:06.564Z,60.06
2022-09-20T02:16:03.417Z,60.02
2022-09-20T02:19:07.934Z,60.01
2022-09-20T02:21:56.022Z,59.74
2022-09-20T02:24:45.476Z,60.27
2022-09-20T02:27:18.275Z,59.87
2022-09-20T02:29:52.378Z,59.97
2022-09-20T02:32:48.005Z,59.86
2022-09-20T02:35:28.959Z,59.89
2022-09-20T02:38:05.621Z,59.86
2022-09-20T02:40:50.314Z,59.97
2022-09-20T02:43:22.728Z,59.94
2022-09-20T02:46:01.468Z,60.15
2022-09-20T02:48:39.223Z,60.07
2022-09-20T02:51:19.406Z,59.84
2022-09-20T02:54:05.044Z,60.08
2022-09-20T02:56:59.371Z,59.87
2022-09-20T02:59:29.752Z,60.23
2022-09-20T03:02:24.802Z,60.10
2022-09-20T03:05:22.364Z,60.08
2022-09-20T03:08:14.743Z,59.98
2022-09-20T03:11:13.259Z,60.11
2022-09-20T03:14:00.582Z,60.22
2022-09-20T03:16:32.947Z,60.26
2022-09-20T03:19:36.314Z,60.03
2022-09-20T03:22:20.047Z,59.92
2022-09-20T03:24:56.548Z,60.11
2022-09-20T03:27:32.985Z,60.25
2022-09-20T03:30:19.778Z,59.86
2022-09-20T03:33:04.214Z,60.03
2022-09-20T03:35:37.845Z,60.08
2022-09-20T03:38:22.396Z,60.01
2022-09-20T03:41:07.757Z,60.22
2022-09-20T03:43:55.967Z,59.94
2022-09-20T03:46:29.549Z,59.87
2022-09-20T03:49:33.547Z,60.16
2022-09-20T03:52:19.156Z,59.82
2022-09-20T03:55:23.028Z,60.24
2022-09-20T03:57:49.487Z,60.20
2022-09-20T04:00:34.645Z,60.08
2022-09-20T04:03:30.614Z,60.13
2022-09-20T04:05:57.198Z,60.22
2022-09-20T04:09:01.401Z,60.25
2022-09-20T04:11:37.585Z,59.97
2022-09-20T04:14:23.795Z,60.02
2022-09-20T04:17:19.089Z,60.31
2022-09-20T04:19:52.294Z,59.76
2022-09-20T04:22:22.415Z,59.76
2022-09-20T04:25:43.760Z,59.95
2022-09-20T04:28:25.455Z,60.03
2022-09-20T04:30:59.410Z,59.83
2022-09-20T04:33:39.756Z,60.08
2022-09-20T04:36:29.553Z,60.18
2022-09-20T04:39:02.081Z,59.68
2022-09-20T04:42:09.102Z,60.07
2022-09-20T04:45:07.860Z,60.02
2022-09-20T04:47:59.146Z,59.66
2022-09-20T04:50:50.178Z,59.89
2022-09-20T04:53:53.777Z,59.55
2022-09-20T04:56:28.514Z,59.46
2022-09-20T04:59:06.464Z,59.71
2022-09-20T05:02:03.909Z,60.00
2022-09-20T05:04:55.185Z,59.59
2022-09-20T05:07:25.265Z,59.55
2022-09-20T05:10:01.203Z,59.66
2022-09-20T05:12:43.050Z,59.81
2022-09-20T05:15:36.299Z,59.83
2022-09-20T05:18:27.870Z,59.76
2022-09-20T05:21:08.185Z,60.10
2022-09-20T05:24:09.494Z,59.87
2022-09-20T05:27:03.384Z,59.90
2022-09-20T05:30:04.382Z,59.75
2022-09-20T05:32:50.628Z,59.65
2022-09-20T05:35:29.314Z,59.61
2022-09-20T05:38:04.800Z,60.11
2022-09-20T05:40:49.707Z,59.79
2022-09-20T05:43:45.312Z,59.83
2022-09-20T05:46:26.646Z,59.51
2022-09-20T05:49:04.244Z,59.68
2022-09-20T05:51:48.633Z,59.41
2022-09-20T05:54:52.597Z,59.36
2022-09-20T05:57:41.065Z,59.35
2022-09-20T06:00:18.128Z,59.47
2022-09-20T06:03:22.861Z,59.43
2022-09-20T06:06:14.455Z,59.49
2022-09-20T06:08:51.893Z,59.56
2022-09-20T06:11:38.981Z,59.50
2022-09-20T06:14:20.209Z,59.72
2022-09-20T06:17:11.869Z,59.41
2022-09-20T06:19:48.841Z,59.93
2022-09-20T06:22:37.426Z,59.81
2022-09-20T06:25:10.219Z,60.09
2022-09-20T06:27:45.390Z,60.09
2022-09-20T06:30:36.386Z,60.14
2022-09-20T06:33:05.985Z,60.45
2022-09-20T06:35:59.087Z,60.40
2022-09-20T06:38:53.473Z,60.83
2022-09-20T06:41:28.637Z,60.66
2022-09-20T06:44:01.860Z,60.91
2022-09-20T06:46:30.674Z,61.02
2022-09-20T06:48:57.863Z,61.16
2022-09-20T06:51:27.051Z,60.74
2022-09-20T06:53:57.216Z,60.87
2022-09-20T06:56:26.971Z,60.96
2022-09-20T06:58:54.430Z,60.87
2022-09-20T07:01:29.725Z,60.93
2022-09-20T07:04:01.235Z,60.93
2022-09-20T07:06:28.783Z,60.87
2022-09-20T07:08:55.459Z,60.65
2022-09-20T07:11:23.162Z,60.61
2022-09-20T07:13:56.120Z,60.78
2022-09-20T07:16:22.761Z,60.74
2022-09-20T07:18:51.975Z,60.36
2022-09-20T07:21:20.316Z,60.83
2022-09-20T07:23:51.217Z,60.93
2022-09-20T07:26:29.096Z,60.47
2022-09-20T07:28:57.400Z,60.17
2022-09-20T07:31:26.452Z,60.08
2022-09-20T07:33:55.340Z,60.04
2022-09-20T07:36:22.145Z,60.21
2022-09-20T07:38:50.743Z,59.58
2022-09-20T07:41:22.717Z,59.39
2022-09-20T07:43:50.776Z,59.44
2022-09-20T07:46:17.326Z,59.08
2022-09-20T07:48:44.139Z,58.85
2022-09-20T07:51:13.475Z,58.86
2022-09-20T07:53:44.223Z,58.20
2022-09-20T07:56:13.675Z,57.98
2022-09-20T07:58:40.983Z,57.98
2022-09-20T08:01:10.219Z,57.36
2022-09-20T08:03:42.821Z,57.07
2022-09-20T08:06:11.962Z,57.30
2022-09-20T08:08:40.574Z,56.99
2022-09-20T08:11:10.321Z,56.34
2022-09-20T08:16:31.739Z,56.19
2022-09-20T08:19:01.588Z,56.06
2022-09-20T08:21:33.222Z,55.46
2022-09-20T08:24:04.594Z,55.50
2022-09-20T08:26:31.564Z,55.17
2022-09-20T08:28:59.746Z,54.89
2022-09-20T08:31:31.587Z,54.67
2022-09-20T08:33:59.299Z,54.49
2022-09-20T08:36:26.550Z,54.42
2022-09-20T08:41:58.458Z,54.01
2022-09-20T08:44:35.659Z,53.92
2022-09-20T08:47:16.602Z,53.99
2022-09-20T08:49:46.117Z,53.74
2022-09-20T08:52:36.309Z,53.47
2022-09-20T08:55:13.522Z,53.55
2022-09-20T08:57:40.037Z,53.41
2022-09-20T09:00:07.531Z,53.58
2022-09-20T09:02:34.353Z,53.64
2022-09-20T09:05:33.377Z,53.21
2022-09-20T09:08:04.975Z,53.21
2022-09-20T09:10:42.490Z,52.93
2022-09-20T09:13:19.388Z,52.53
2022-09-20T09:15:53.461Z,52.44
2022-09-20T09:18:19.994Z,52.15
2022-09-20T09:20:47.108Z,52.08
2022-09-20T09:23:26.824Z,51.59
2022-09-20T09:25:56.577Z,51.74
2022-09-20T09:28:25.702Z,52.01
2022-09-20T09:30:52.176Z,51.83
2022-09-20T09:33:50.189Z,52.11
2022-09-20T09:36:23.496Z,52.15
2022-09-20T09:38:50.283Z,52.32
2022-09-20T09:41:32.886Z,52.50
2022-09-20T09:44:09.579Z,52.38
2022-09-20T09:46:38.390Z,52.45
2022-09-20T09:49:20.233Z,52.71
2022-09-20T09:52:13.155Z,52.70
2022-09-20T09:54:53.769Z,52.72
2022-09-20T09:57:33.018Z,52.92
2022-09-20T10:00:22.059Z,52.40
2022-09-20T10:03:04.150Z,52.53
2022-09-20T10:05:46.744Z,52.45
2022-09-20T10:08:25.095Z,52.03
2022-09-20T10:11:10.143Z,51.46
2022-09-20T10:14:05.378Z,51.60
2022-09-20T10:17:05.446Z,51.54
2022-09-20T10:19:50.392Z,51.44
2022-09-20T10:22:24.031Z,51.75
2022-09-20T10:25:11.547Z,51.97
2022-09-20T10:28:08.898Z,51.94
2022-09-20T10:30:52.402Z,51.98
2022-09-20T10:33:26.392Z,52.36
2022-09-20T10:36:18.031Z,52.06
2022-09-20T10:39:05.964Z,52.03
2022-09-20T10:42:29.287Z,52.17
2022-09-20T10:45:59.134Z,52.09
2022-09-20T10:48:33.062Z,52.11
2022-09-20T10:51:06.716Z,52.22
2022-09-20T10:53:54.911Z,51.88
2022-09-20T10:56:36.861Z,52.10
2022-09-20T10:59:22.376Z,51.85
2022-09-20T11:01:58.080Z,52.00
2022-09-20T11:04:49.868Z,51.80
2022-09-20T11:07:56.373Z,51.54
2022-09-20T11:10:25.547Z,51.80
2022-09-20T11:13:08.606Z,51.50
2022-09-20T11:15:54.441Z,51.75
2022-09-20T11:18:44.970Z,51.08
2022-09-20T11:21:27.184Z,51.26
2022-09-20T11:24:11.588Z,51.05
2022-09-20T11:26:44.755Z,50.93
2022-09-20T11:29:20.624Z,50.60
2022-09-20T11:31:50.840Z,50.05
2022-09-20T11:34:32.735Z,49.85
2022-09-20T11:37:03.036Z,49.70
2022-09-20T11:39:48.492Z,48.87
2022-09-20T11:42:20.137Z,48.61
2022-09-20T11:44:48.773Z,48.03
2022-09-20T11:47:54.980Z,46.98
2022-09-20T11:51:11.066Z,46.76
2022-09-20T11:54:01.846Z,46.73
2022-09-20T11:56:31.679Z,46.80
2022-09-20T11:59:00.802Z,46.63
2022-09-20T12:01:37.754Z,46.68
2022-09-20T12:04:34.553Z,46.34
2022-09-20T12:07:08.333Z,46.50
2022-09-20T12:09:40.506Z,46.37
2022-09-20T12:12:22.198Z,46.21
2022-09-20T12:14:58.580Z,46.40
2022-09-20T12:17:47.859Z,45.93
2022-09-20T12:20:32.750Z,45.92
2022-09-20T12:23:50.702Z,45.81
2022-09-20T12:26:23.098Z,45.78
2022-09-20T12:28:50.821Z,45.53
2022-09-20T12:31:26.081Z,45.66
2022-09-20T12:34:11.716Z,45.48
2022-09-20T12:36:46.572Z,45.60
2022-09-20T12:39:16.242Z,45.38
2022-09-20T12:41:58.444Z,45.20
2022-09-20T12:44:40.200Z,45.27
2022-09-20T12:47:18.355Z,45.51
2022-09-20T12:50:06.393Z,44.77
2022-09-20T12:52:53.738Z,44.24
2022-09-20T12:55:32.844Z,43.89
2022-09-20T12:58:14.495Z,43.62
2022-09-20T13:01:01.013Z,43.55
2022-09-20T13:03:48.147Z,43.23
2022-09-20T13:06:15.563Z,42.88
2022-09-20T13:08:43.362Z,42.78
2022-09-20T13:11:20.043Z,42.50
2022-09-20T13:13:57.537Z,42.61
2022-09-20T13:16:36.934Z,42.86
2022-09-20T13:19:16.384Z,42.67
2022-09-20T13:21:54.137Z,42.65
2022-09-20T13:24:49.907Z,42.40
2022-09-20T13:27:22.225Z,42.75
2022-09-20T13:29:49.271Z,42.26
2022-09-20T13:32:23.343Z,42.13
2022-09-20T13:35:15.407Z,41.67
2022-09-20T13:37:44.955Z,41.36
2022-09-20T13:40:50.061Z,41.22
2022-09-20T13:43:55.636Z,41.64
2022-09-20T13:46:31.334Z,41.18
2022-09-20T13:49:14.820Z,41.00
2022-09-20T13:51:41.346Z,41.03
2022-09-20T13:54:29.338Z,41.20
2022-09-20T13:57:00.804Z,41.03
2022-09-20T13:59:34.039Z,40.48
2022-09-20T14:02:01.030Z,40.59
2022-09-20T14:04:31.360Z,40.67
2022-09-20T14:07:00.564Z,40.64
2022-09-20T14:09:35.637Z,40.77
2022-09-20T14:12:04.540Z,40.92
2022-09-20T14:14:34.573Z,40.77
2022-09-20T14:17:04.255Z,40.80
2022-09-20T14:19:37.189Z,40.41
2022-09-20T14:22:05.116Z,40.23
2022-09-20T14:24:37.210Z,40.64
2022-09-20T14:27:20.194Z,40.58
2022-09-20T14:29:54.447Z,40.59
2022-09-20T14:32:28.313Z,40.16
2022-09-20T14:35:15.999Z,40.10
2022-09-20T14:37:49.525Z,39.99
2022-09-20T14:40:18.686Z,39.47
2022-09-20T14:43:06.180Z,39.22
2022-09-20T14:45:41.025Z,39.48
2022-09-20T14:48:11.306Z,39.61
2022-09-20T14:50:38.209Z,39.76
2022-09-20T14:53:12.454Z,39.39
2022-09-20T14:56:03.874Z,39.14
2022-09-20T14:58:31.150Z,39.45
2022-09-20T15:01:23.892Z,39.49
2022-09-20T15:03:53.002Z,39.47
2022-09-20T15:06:19.842Z,39.62
2022-09-20T15:08:47.004Z,39.90
2022-09-20T15:11:18.128Z,40.08
2022-09-20T15:13:46.266Z,40.09
2022-09-20T15:16:14.760Z,40.21
2022-09-20T15:18:43.305Z,40.16
2022-09-20T15:21:13.756Z,40.26
2022-09-20T15:23:44.708Z,40.20
2022-09-20T15:26:13.489Z,40.42
2022-09-20T15:28:40.281Z,40.58
2022-09-20T15:31:06.927Z,40.43
2022-09-20T15:33:37.750Z,40.49
2022-09-20T15:36:05.318Z,40.92
2022-09-20T15:38:31.889Z,41.18
2022-09-20T15:41:01.265Z,41.34
2022-09-20T15:43:43.234Z,41.29
2022-09-20T15:46:24.529Z,41.22
2022-09-20T15:48:50.994Z,41.39
2022-09-20T15:51:17.495Z,41.44
2022-09-20T15:53:56.628Z,41.48
2022-09-20T15:56:26.571Z,41.99
2022-09-20T15:59:03.814Z,41.82
2022-09-20T16:01:33.610Z,41.87
2022-09-20T16:04:04.262Z,42.26
2022-09-20T16:06:32.467Z,42.46
2022-09-20T16:08:58.989Z,42.56
2022-09-20T16:11:27.838Z,42.33
2022-09-20T16:13:59.053Z,42.89
2022-09-20T16:16:30.630Z,42.91
2022-09-20T16:19:15.619Z,43.20
2022-09-20T16:21:44.137Z,43.00
2022-09-20T16:24:16.580Z,43.34
2022-09-20T16:26:43.411Z,43.30
2022-09-20T16:29:11.565Z,43.57
2022-09-20T16:31:46.726Z,43.76
2022-09-20T16:34:19.429Z,43.32
2022-09-20T16:36:47.162Z,43.66
2022-09-20T16:39:14.873Z,44.07
2022-09-20T16:41:42.238Z,44.27
2022-09-20T16:44:10.207Z,43.86
2022-09-20T16:46:37.349Z,43.85
2022-09-20T16:49:07.192Z,44.02
2022-09-20T16:51:36.190Z,44.16
2022-09-20T16:54:13.241Z,44.17
2022-09-20T16:56:42.563Z,43.92
2022-09-20T16:59:09.290Z,43.76
2022-09-20T17:01:36.910Z,44.03
2022-09-20T17:04:08.680Z,44.19
2022-09-20T17:06:37.150Z,43.85
2022-09-20T17:09:05.468Z,44.17
2022-09-20T17:11:36.758Z,44.48
2022-09-20T17:14:09.498Z,44.14
2022-09-20T17:16:38.133Z,44.44
2022-09-20T17:19:11.048Z,44.55
2022-09-20T17:21:40.502Z,44.75
2022-09-20T17:24:13.876Z,44.76
2022-09-20T17:26:44.375Z,45.07
2022-09-20T17:29:13.886Z,45.18
2022-09-20T17:31:42.348Z,45.24
2022-09-20T17:34:15.107Z,45.16
2022-09-20T17:36:44.168Z,45.47
2022-09-20T17:39:12.900Z,45.25
2022-09-20T17:41:41.064Z,45.85
2022-09-20T17:44:09.940Z,45.65
2022-09-20T17:46:38.601Z,45.79
2022-09-20T17:49:07.691Z,45.82
2022-09-20T17:51:42.635Z,46.38
2022-09-20T17:54:14.432Z,46.43
2022-09-20T17:56:52.225Z,46.53
2022-09-20T17:59:19.838Z,46.31
2022-09-20T18:01:49.268Z,46.36
2022-09-20T18:04:17.659Z,46.62
2022-09-20T18:06:49.916Z,47.04
2022-09-20T18:09:26.989Z,47.11
2022-09-20T18:11:55.307Z,47.24
2022-09-20T18:14:25.564Z,47.60
2022-09-20T18:16:57.910Z,47.69
2022-09-20T18:19:24.565Z,47.53
2022-09-20T18:21:51.139Z,47.61
2022-09-20T18:24:20.791Z,47.59
2022-09-20T18:26:47.322Z,48.11
2022-09-20T18:29:18.131Z,48.11
2022-09-20T18:31:52.083Z,48.16
2022-09-20T18:34:23.060Z,48.13
2022-09-20T18:36:54.890Z,48.27
2022-09-20T18:39:26.537Z,48.09
2022-09-20T18:41:53.965Z,48.53
2022-09-20T18:44:23.014Z,48.55
2022-09-20T18:46:53.306Z,48.51
2022-09-20T18:49:21.425Z,48.55
2022-09-20T18:51:48.880Z,48.72
2022-09-20T18:54:17.860Z,48.66
2022-09-20T18:56:46.380Z,48.99
2022-09-20T18:59:16.111Z,48.90
2022-09-20T19:01:59.559Z,49.48
2022-09-20T19:04:32.010Z,49.55
2022-09-20T19:07:29.289Z,49.38
2022-09-20T19:10:13.525Z,49.40
2022-09-20T19:12:46.504Z,49.64
2022-09-20T19:15:44.141Z,49.58
2022-09-20T19:18:23.595Z,49.35
2022-09-20T19:21:01.131Z,49.95
2022-09-20T19:23:45.337Z,49.98
2022-09-20T19:26:26.770Z,49.86
2022-09-20T19:28:57.012Z,50.22
2022-09-20T19:31:25.321Z,49.97
2022-09-20T19:33:57.376Z,50.35
2022-09-20T19:36:28.776Z,50.25
2022-09-20T19:39:10.005Z,50.39
2022-09-20T19:42:14.694Z,50.76
2022-09-20T19:45:22.882Z,50.34
2022-09-20T19:48:13.170Z,50.82
2022-09-20T19:50:57.331Z,50.73
2022-09-20T19:56:25.303Z,50.96
2022-09-20T19:58:56.072Z,50.92
2022-09-20T20:01:24.687Z,50.91
2022-09-20T20:03:55.071Z,51.38
2022-09-20T20:06:34.406Z,51.25
2022-09-20T20:09:08.494Z,51.53
2022-09-20T20:12:00.335Z,51.38
2022-09-20T20:14:53.441Z,51.45
2022-09-20T20:17:38.162Z,51.44
2022-09-20T20:20:32.079Z,51.36
2022-09-20T20:26:03.092Z,51.19
2022-09-20T20:28:30.527Z,51.38
2022-09-20T20:31:02.156Z,51.28
2022-09-20T20:33:54.162Z,51.02
2022-09-20T20:36:20.666Z,51.32
2022-09-20T20:38:50.133Z,50.89
2022-09-20T20:41:18.716Z,51.32
2022-09-20T20:43:56.236Z,50.90
2022-09-20T20:46:23.752Z,51.01
2022-09-20T20:48:50.444Z,50.96
2022-09-20T20:51:19.553Z,51.55
2022-09-20T20:53:50.117Z,51.68
2022-09-20T20:56:19.245Z,51.59
2022-09-20T20:58:47.375Z,51.59
2022-09-20T21:01:13.947Z,51.50
2022-09-20T21:03:42.997Z,51.25
2022-09-20T21:06:10.298Z,51.55
2022-09-20T21:08:39.533Z,51.32
2022-09-20T21:11:09.378Z,51.84
2022-09-20T21:13:40.166Z,51.64
2022-09-20T21:16:15.817Z,51.61
2022-09-20T21:18:44.122Z,51.56
2022-09-20T21:21:22.443Z,51.80
2022-09-20T21:23:53.351Z,51.35
2022-09-20T21:26:21.249Z,51.73
2022-09-20T21:28:53.672Z,51.92
2022-09-20T21:31:22.479Z,51.62
2022-09-20T21:33:53.374Z,52.14
2022-09-20T21:36:22.429Z,51.98
2022-09-20T21:38:49.438Z,52.26
2022-09-20T21:41:24.537Z,52.19
2022-09-20T21:43:57.528Z,52.34
2022-09-20T21:46:31.193Z,52.64
2022-09-20T21:48:59.588Z,52.34
2022-09-20T21:51:30.989Z,52.61
2022-09-20T21:53:59.415Z,52.65
2022-09-20T21:56:27.965Z,52.51
2022-09-20T21:58:55.135Z,53.03
2022-09-20T22:01:23.946Z,53.01
2022-09-20T22:03:59.053Z,52.76
2022-09-20T22:06:33.907Z,53.16
2022-09-20T22:09:03.259Z,53.12
2022-09-20T22:11:32.347Z,52.93
2022-09-20T22:14:02.197Z,53.38
2022-09-20T22:16:34.057Z,53.30
2022-09-20T22:19:00.932Z,53.71
2022-09-20T22:21:30.027Z,53.31
2022-09-20T22:24:03.566Z,53.83
2022-09-20T22:26:34.115Z,53.50
2022-09-20T22:29:00.764Z,53.89
2022-09-20T22:31:32.449Z,53.89
2022-09-20T22:34:04.463Z,53.90
2022-09-20T22:36:36.543Z,54.18
2022-09-20T22:39:04.984Z,54.00
2022-09-20T22:41:31.699Z,53.98
2022-09-20T22:43:58.332Z,54.40
2022-09-20T22:46:27.681Z,54.14
2022-09-20T22:48:54.503Z,54.12
2022-09-20T22:51:28.757Z,54.27
2022-09-20T22:53:57.128Z,54.28
2022-09-20T22:56:29.509Z,54.48
2022-09-20T22:59:03.486Z,54.62
2022-09-20T23:01:32.530Z,54.12
2022-09-20T23:04:09.958Z,54.33
2022-09-20T23:06:44.205Z,54.31
2022-09-20T23:09:13.078Z,54.42
2022-09-20T23:11:44.714Z,54.20
2022-09-20T23:14:20.377Z,54.40
2022-09-20T23:16:47.980Z,54.66
2022-09-20T23:19:15.011Z,54.42
2022-09-20T23:21:43.577Z,54.59
2022-09-20T23:24:14.328Z,54.48
2022-09-20T23:26:42.421Z,54.57
2022-09-20T23:29:12.040Z,55.09
2022-09-20T23:31:45.542Z,54.55
2022-09-20T23:34:14.320Z,54.74
2022-09-20T23:36:42.757Z,55.21
2022-09-20T23:39:10.639Z,55.11
2022-09-20T23:41:38.128Z,55.04
2022-09-20T23:44:06.816Z,54.85
2022-09-20T23:46:34.156Z,55.21
2022-09-20T23:49:00.792Z,55.07
2022-09-20T23:51:28.976Z,54.99
2022-09-20T23:53:58.461Z,55.19
2022-09-20T23:56:25.480Z,55.32
2022-09-20T23:58:52.325Z,55.09
